createdAt,value
2018-02-06T00:00:24.671Z,31.60
2018-02-06T00:01:24.602Z,28.00
2018-02-06T00:02:24.535Z,28.20
2018-02-06T00:03:24.475Z,27.50
2018-02-06T00:04:24.412Z,28.30
2018-02-06T00:05:24.347Z,28.20
2018-02-06T00:06:24.282Z,27.80
2018-02-06T00:07:24.221Z,28.10
2018-02-06T00:08:24.156Z,27.00
2018-02-06T00:09:24.094Z,28.20
2018-02-06T00:10:24.032Z,27.00
2018-02-06T00:11:23.965Z,25.30
2018-02-06T00:12:23.903Z,26.70
2018-02-06T00:13:23.841Z,28.20
2018-02-06T00:14:23.778Z,28.90
2018-02-06T00:15:23.711Z,28.40
2018-02-06T00:16:23.647Z,27.50
2018-02-06T00:17:23.586Z,28.20
2018-02-06T00:18:23.521Z,28.40
2018-02-06T00:19:23.457Z,26.30
2018-02-06T00:20:23.397Z,26.40
2018-02-06T00:21:23.330Z,26.60
2018-02-06T00:22:23.265Z,28.20
2018-02-06T00:23:23.205Z,26.40
2018-02-06T00:24:23.142Z,28.10
2018-02-06T00:25:23.076Z,27.80
2018-02-06T00:26:23.012Z,27.90
2018-02-06T00:27:22.948Z,26.80
2018-02-06T00:28:22.884Z,27.20
2018-02-06T00:29:22.822Z,27.20
2018-02-06T00:30:22.761Z,26.60
2018-02-06T00:31:22.695Z,29.00
2018-02-06T00:32:22.631Z,28.50
2018-02-06T00:33:22.570Z,29.50
2018-02-06T00:34:22.506Z,29.00
2018-02-06T00:35:22.443Z,26.40
2018-02-06T00:36:22.378Z,27.40
2018-02-06T00:37:22.314Z,28.60
2018-02-06T00:38:22.250Z,29.70
2018-02-06T00:39:22.187Z,27.50
2018-02-06T00:40:22.123Z,27.00
2018-02-06T00:41:22.063Z,28.90
2018-02-06T00:42:21.996Z,29.10
2018-02-06T00:43:21.934Z,28.40
2018-02-06T00:44:21.871Z,27.40
2018-02-06T00:45:21.805Z,29.40
2018-02-06T00:46:21.741Z,27.40
2018-02-06T00:47:21.677Z,28.70
2018-02-06T00:48:21.615Z,27.40
2018-02-06T00:49:21.553Z,28.40
2018-02-06T00:50:21.491Z,28.80
2018-02-06T00:51:21.427Z,27.10
2018-02-06T00:52:21.361Z,27.70
2018-02-06T00:53:21.300Z,28.50
2018-02-06T00:54:21.234Z,27.70
2018-02-06T00:55:21.169Z,28.00
2018-02-06T00:56:21.109Z,30.90
2018-02-06T00:57:21.044Z,27.80
2018-02-06T00:58:20.979Z,28.70
2018-02-06T00:59:20.918Z,26.00
2018-02-06T01:00:20.852Z,28.60
2018-02-06T01:01:20.792Z,28.30
2018-02-06T01:02:20.728Z,28.80
2018-02-06T01:03:20.661Z,29.90
2018-02-06T01:04:20.600Z,27.70
2018-02-06T01:05:20.536Z,32.50
2018-02-06T01:06:20.472Z,29.50
2018-02-06T01:07:20.444Z,30.20
2018-02-06T01:08:20.345Z,29.60
2018-02-06T01:09:20.282Z,30.00
2018-02-06T01:10:20.222Z,28.90
2018-02-06T01:11:20.154Z,29.90
2018-02-06T01:12:20.091Z,26.20
2018-02-06T01:13:20.029Z,28.60
2018-02-06T01:14:19.964Z,28.40
2018-02-06T01:15:19.902Z,30.00
2018-02-06T01:16:19.837Z,28.90
2018-02-06T01:17:19.773Z,26.80
2018-02-06T01:18:19.710Z,28.80
2018-02-06T01:19:19.646Z,28.10
2018-02-06T01:20:19.583Z,28.00
2018-02-06T01:21:19.518Z,27.60
2018-02-06T01:22:19.456Z,29.40
2018-02-06T01:23:19.391Z,27.40
2018-02-06T01:24:19.331Z,26.60
2018-02-06T01:25:19.266Z,27.70
2018-02-06T01:26:19.203Z,26.90
2018-02-06T01:27:19.141Z,29.00
2018-02-06T01:28:19.078Z,27.70
2018-02-06T01:29:19.014Z,29.90
2018-02-06T01:30:18.949Z,27.50
2018-02-06T01:31:18.886Z,26.80
2018-02-06T01:32:18.824Z,28.10
2018-02-06T01:33:18.762Z,26.50
2018-02-06T01:34:18.697Z,28.00
2018-02-06T01:35:18.634Z,28.20
2018-02-06T01:36:18.569Z,28.10
2018-02-06T01:37:18.508Z,28.10
2018-02-06T01:38:18.444Z,26.90
2018-02-06T01:39:18.386Z,27.90
2018-02-06T01:40:18.320Z,26.60
2018-02-06T01:41:18.255Z,26.60
2018-02-06T01:42:18.192Z,30.10
2018-02-06T01:43:18.128Z,28.60
2018-02-06T01:44:18.065Z,28.30
2018-02-06T01:45:18.003Z,29.60
2018-02-06T01:46:17.938Z,27.10
2018-02-06T01:47:17.879Z,28.40
2018-02-06T01:48:17.813Z,29.30
2018-02-06T01:49:17.752Z,27.90
2018-02-06T01:50:17.685Z,31.30
2018-02-06T01:51:17.622Z,30.40
2018-02-06T01:52:17.561Z,27.50
2018-02-06T01:53:17.498Z,29.00
2018-02-06T01:54:17.433Z,31.00
2018-02-06T01:55:17.371Z,29.50
2018-02-06T01:56:17.307Z,31.00
2018-02-06T01:57:17.244Z,28.20
2018-02-06T01:58:17.182Z,27.20
2018-02-06T01:59:17.120Z,28.00
2018-02-06T02:00:17.056Z,29.40
2018-02-06T02:01:16.997Z,29.60
2018-02-06T02:02:16.927Z,27.90
2018-02-06T02:03:16.866Z,30.10
2018-02-06T02:04:16.806Z,28.60
2018-02-06T02:05:16.740Z,29.80
2018-02-06T02:06:16.676Z,28.70
2018-02-06T02:07:16.614Z,29.10
2018-02-06T02:08:16.549Z,28.10
2018-02-06T02:09:16.486Z,28.90
2018-02-06T02:10:16.422Z,29.80
2018-02-06T02:11:16.362Z,29.30
2018-02-06T02:12:16.296Z,30.40
2018-02-06T02:13:16.234Z,28.30
2018-02-06T02:14:16.171Z,29.00
2018-02-06T02:15:16.107Z,28.80
2018-02-06T02:16:16.046Z,29.30
2018-02-06T02:17:15.986Z,29.30
2018-02-06T02:18:15.916Z,28.80
2018-02-06T02:19:15.855Z,28.90
2018-02-06T02:20:15.798Z,31.90
2018-02-06T02:21:15.729Z,31.30
2018-02-06T02:22:15.666Z,31.20
2018-02-06T02:23:15.603Z,29.60
2018-02-06T02:24:15.541Z,30.60
2018-02-06T02:25:15.476Z,30.40
2018-02-06T02:26:15.415Z,30.80
2018-02-06T02:27:15.349Z,30.20
2018-02-06T02:28:15.287Z,31.50
2018-02-06T02:29:15.223Z,33.20
2018-02-06T02:30:15.160Z,30.00
2018-02-06T02:31:15.097Z,29.90
2018-02-06T02:32:15.038Z,32.00
2018-02-06T02:33:14.972Z,30.10
2018-02-06T02:34:14.908Z,32.90
2018-02-06T02:35:14.847Z,31.20
2018-02-06T02:36:14.783Z,31.50
2018-02-06T02:37:14.719Z,30.20
2018-02-06T02:38:14.655Z,31.60
2018-02-06T02:39:14.591Z,30.70
2018-02-06T02:40:14.527Z,30.90
2018-02-06T02:41:14.465Z,31.20
2018-02-06T04:39:07.014Z,34.80
2018-02-06T04:40:06.953Z,34.20
2018-02-06T04:41:06.887Z,36.70
2018-02-06T04:42:06.823Z,35.80
2018-02-06T04:43:06.764Z,38.00
2018-02-06T04:44:06.698Z,35.40
2018-02-06T04:45:06.633Z,37.30
2018-02-06T04:46:06.570Z,36.20
2018-02-06T04:47:06.507Z,37.00
2018-02-06T04:48:06.444Z,35.80
2018-02-06T04:49:06.381Z,37.20
2018-02-06T04:50:06.318Z,37.30
2018-02-06T04:51:06.255Z,36.40
2018-02-06T04:52:06.192Z,37.30
2018-02-06T04:53:06.130Z,37.50
2018-02-06T04:54:06.066Z,35.60
2018-02-06T04:55:06.003Z,37.10
2018-02-06T04:56:05.940Z,37.90
2018-02-06T04:57:05.880Z,36.80
2018-02-06T04:58:05.815Z,38.80
2018-02-06T04:59:05.752Z,37.90
2018-02-06T05:00:05.689Z,37.00
2018-02-06T05:01:05.625Z,35.50
2018-02-06T05:02:05.560Z,37.20
2018-02-06T05:03:05.498Z,37.50
2018-02-06T05:04:05.442Z,35.80
2018-02-06T05:05:05.374Z,36.40
2018-02-06T05:06:05.314Z,36.50
2018-02-06T05:07:05.247Z,35.10
2018-02-06T05:08:05.184Z,35.80
2018-02-06T05:09:05.124Z,36.00
2018-02-06T05:10:05.058Z,39.10
2018-02-06T05:11:04.996Z,37.20
2018-02-06T05:12:04.935Z,37.50
2018-02-06T05:13:04.876Z,37.90
2018-02-06T05:14:04.806Z,37.50
2018-02-06T05:15:04.743Z,38.60
2018-02-06T05:16:04.680Z,37.60
2018-02-06T05:17:04.619Z,37.40
2018-02-06T05:18:04.553Z,38.10
2018-02-06T05:19:04.490Z,40.20
2018-02-06T05:20:04.428Z,38.00
2018-02-06T05:21:04.367Z,39.00
2018-02-06T05:22:04.302Z,37.30
2018-02-06T05:23:04.240Z,42.30
2018-02-06T05:24:04.177Z,39.50
2018-02-06T05:25:04.117Z,37.00
2018-02-06T05:26:04.055Z,46.00
2018-02-06T05:27:03.988Z,40.20
2018-02-06T05:28:03.930Z,39.70
2018-02-06T05:29:03.864Z,37.80
2018-02-06T05:30:03.800Z,37.80
2018-02-06T05:31:03.748Z,36.20
2018-02-06T05:32:03.674Z,37.00
2018-02-06T05:33:03.612Z,42.10
2018-02-06T05:34:03.548Z,39.30
2018-02-06T05:35:03.486Z,38.30
2018-02-06T05:36:03.435Z,38.10
2018-02-06T05:37:03.376Z,36.60
2018-02-06T05:38:03.294Z,36.60
2018-02-06T05:39:03.233Z,38.40
2018-02-06T05:40:03.169Z,38.90
2018-02-06T05:41:03.107Z,38.60
2018-02-06T05:42:03.045Z,38.00
2018-02-06T05:43:02.980Z,38.50
2018-02-06T05:44:02.924Z,36.70
2018-02-06T05:45:02.860Z,38.70
2018-02-06T05:46:02.792Z,37.50
2018-02-06T05:47:02.732Z,37.60
2018-02-06T05:48:02.666Z,37.70
2018-02-06T05:49:02.604Z,39.70
2018-02-06T05:50:02.547Z,37.60
2018-02-06T05:51:02.479Z,37.90
2018-02-06T05:52:02.416Z,38.00
2018-02-06T05:53:02.357Z,38.90
2018-02-06T05:54:02.290Z,38.00
2018-02-06T05:55:02.227Z,36.50
2018-02-06T05:56:02.164Z,39.80
2018-02-06T05:57:02.103Z,39.20
2018-02-06T05:58:02.040Z,40.10
2018-02-06T05:59:01.977Z,38.60
2018-02-06T06:00:01.913Z,39.70
2018-02-06T06:01:01.852Z,40.90
2018-02-06T06:02:01.786Z,37.90
2018-02-06T06:03:01.725Z,38.80
2018-02-06T06:04:01.661Z,39.30
2018-02-06T06:05:01.598Z,37.60
2018-02-06T06:06:01.537Z,42.30
2018-02-06T06:07:01.472Z,42.00
2018-02-06T06:08:01.410Z,38.80
2018-02-06T06:09:01.348Z,40.30
2018-02-06T06:10:01.284Z,38.70
2018-02-06T06:11:01.222Z,39.10
2018-02-06T06:12:01.162Z,39.60
2018-02-06T06:13:01.101Z,40.30
2018-02-06T06:14:01.033Z,38.40
2018-02-06T06:15:00.971Z,39.40
2018-02-06T06:16:00.909Z,39.60
2018-02-06T06:17:00.847Z,38.70
2018-02-06T06:18:00.782Z,38.90
2018-02-06T06:19:00.720Z,39.00
2018-02-06T06:20:00.657Z,40.10
2018-02-06T06:21:00.596Z,41.40
2018-02-06T06:22:00.532Z,39.20
2018-02-06T06:23:00.541Z,37.80
2018-02-06T06:24:00.407Z,39.90
2018-02-06T06:25:00.348Z,41.00
2018-02-06T06:26:00.283Z,37.50
2018-02-06T06:27:00.219Z,37.90
2018-02-06T06:28:00.155Z,39.10
2018-02-06T06:29:00.093Z,40.00
2018-02-06T06:30:00.031Z,41.30
2018-02-06T06:30:59.969Z,41.40
2018-02-06T06:31:59.904Z,39.80
2018-02-06T06:32:59.842Z,41.30
2018-02-06T06:33:59.780Z,39.60
2018-02-06T06:34:59.716Z,38.90
2018-02-06T06:35:59.653Z,40.40
2018-02-06T06:36:59.593Z,38.50
2018-02-06T06:37:59.527Z,39.30
2018-02-06T06:38:59.466Z,39.60
2018-02-06T06:39:59.404Z,40.80
2018-02-06T06:40:59.345Z,40.90
2018-02-06T06:41:59.276Z,42.00
2018-02-06T06:42:59.214Z,41.10
2018-02-06T06:43:59.151Z,43.60
2018-02-06T06:44:59.090Z,41.80
2018-02-06T06:45:59.025Z,37.90
2018-02-06T06:46:58.963Z,38.30
2018-02-06T06:47:58.900Z,38.70
2018-02-06T06:48:58.861Z,38.10
2018-02-06T06:49:58.777Z,38.80
2018-02-06T06:50:58.712Z,40.40
2018-02-06T06:51:58.652Z,37.80
2018-02-06T06:52:58.586Z,37.40
2018-02-06T06:53:58.523Z,41.10
2018-02-06T06:54:58.462Z,38.90
2018-02-06T06:55:58.398Z,38.50
2018-02-06T06:56:58.341Z,38.90
2018-02-06T06:57:58.279Z,38.10
2018-02-06T06:58:58.210Z,39.40
2018-02-06T06:59:58.148Z,43.30
2018-02-06T07:00:58.084Z,41.30
2018-02-06T07:01:58.020Z,39.60
2018-02-06T07:02:57.958Z,41.80
2018-02-06T07:03:57.895Z,42.20
2018-02-06T07:04:57.833Z,42.40
2018-02-06T07:05:57.773Z,40.60
2018-02-06T07:06:57.706Z,39.80
2018-02-06T07:07:57.646Z,40.20
2018-02-06T07:08:57.584Z,39.00
2018-02-06T07:09:57.519Z,40.10
2018-02-06T07:10:57.455Z,38.30
2018-02-06T07:11:57.395Z,43.80
2018-02-06T07:12:57.330Z,40.40
2018-02-06T07:13:57.266Z,39.90
2018-02-06T07:14:57.207Z,38.00
2018-02-06T07:15:57.142Z,38.40
2018-02-06T07:16:57.079Z,37.10
2018-02-06T07:17:57.016Z,37.60
2018-02-06T07:18:56.953Z,41.40
2018-02-06T07:19:56.890Z,37.40
2018-02-06T07:20:56.827Z,38.00
2018-02-06T07:21:56.763Z,38.90
2018-02-06T07:22:56.701Z,39.10
2018-02-06T07:23:56.644Z,40.10
2018-02-06T07:24:56.575Z,39.00
2018-02-06T07:25:56.514Z,44.30
2018-02-06T07:26:56.451Z,40.00
2018-02-06T07:27:56.388Z,38.90
2018-02-06T07:28:56.343Z,39.90
2018-02-06T07:29:56.261Z,41.60
2018-02-06T07:30:56.200Z,38.40
2018-02-06T07:31:56.138Z,41.30
2018-02-06T07:32:56.074Z,37.30
2018-02-06T07:33:56.012Z,42.00
2018-02-06T07:34:55.949Z,41.10
2018-02-06T07:35:55.887Z,39.40
2018-02-06T07:36:55.826Z,37.50
2018-02-06T07:37:55.760Z,40.90
2018-02-06T07:38:55.699Z,37.70
2018-02-06T07:39:55.637Z,38.00
2018-02-06T07:40:55.575Z,40.80
2018-02-06T07:41:55.512Z,39.20
2018-02-06T07:42:55.448Z,39.80
2018-02-06T07:43:55.386Z,38.80
2018-02-06T07:44:55.326Z,41.30
2018-02-06T07:45:55.262Z,39.60
2018-02-06T07:46:55.199Z,36.60
2018-02-06T07:47:55.136Z,38.90
2018-02-06T07:48:55.074Z,39.90
2018-02-06T07:49:55.010Z,39.30
2018-02-06T07:50:54.949Z,37.50
2018-02-06T07:51:54.886Z,39.50
2018-02-06T07:52:54.829Z,37.00
2018-02-06T07:53:54.761Z,41.60
2018-02-06T07:54:54.697Z,41.20
2018-02-06T07:55:54.638Z,39.70
2018-02-06T07:56:54.573Z,38.70
2018-02-06T07:57:54.511Z,39.50
2018-02-06T07:58:54.451Z,38.10
2018-02-06T07:59:54.388Z,37.10
2018-02-06T08:00:54.324Z,44.80
2018-02-06T08:01:54.266Z,39.90
2018-02-06T08:02:54.198Z,37.90
2018-02-06T08:03:54.137Z,42.40
2018-02-06T08:04:54.072Z,40.20
2018-02-06T08:05:54.019Z,39.90
2018-02-06T08:06:53.948Z,40.50
2018-02-06T08:07:53.885Z,45.00
2018-02-06T08:08:53.822Z,37.50
2018-02-06T08:09:53.759Z,43.60
2018-02-06T08:10:53.698Z,38.60
2018-02-06T08:11:53.634Z,40.70
2018-02-06T08:12:53.573Z,40.80
2018-02-06T08:13:53.509Z,41.90
2018-02-06T08:14:53.447Z,41.50
2018-02-06T08:15:53.383Z,42.90
2018-02-06T08:16:53.325Z,38.20
2018-02-06T08:17:53.257Z,37.50
2018-02-06T08:18:53.195Z,38.70
2018-02-06T08:19:53.132Z,41.10
2018-02-06T08:20:53.071Z,37.60
2018-02-06T08:21:53.007Z,39.60
2018-02-06T08:22:52.944Z,43.20
2018-02-06T08:23:52.883Z,40.70
2018-02-06T08:24:52.837Z,39.70
2018-02-06T08:25:52.755Z,42.40
2018-02-06T08:26:52.730Z,42.40
2018-02-06T08:27:52.633Z,40.40
2018-02-06T08:28:52.569Z,44.20
2018-02-06T08:29:52.506Z,36.80
2018-02-06T08:30:52.445Z,40.50
2018-02-06T08:31:52.407Z,42.30
2018-02-06T08:32:52.318Z,41.40
2018-02-06T08:33:52.256Z,41.50
2018-02-06T08:34:52.193Z,40.30
2018-02-06T08:35:52.130Z,39.60
2018-02-06T08:36:52.067Z,38.40
2018-02-06T08:37:52.005Z,43.10
2018-02-06T08:38:51.945Z,42.20
2018-02-06T08:39:51.880Z,42.60
2018-02-06T08:40:51.817Z,40.90
2018-02-06T08:41:51.753Z,45.70
2018-02-06T08:42:51.691Z,40.20
2018-02-06T08:43:51.628Z,41.20
2018-02-06T08:44:51.569Z,40.30
2018-02-06T08:45:51.503Z,39.20
2018-02-06T08:46:51.440Z,38.90
2018-02-06T08:47:51.378Z,41.80
2018-02-06T08:48:51.327Z,39.60
2018-02-06T08:49:51.254Z,38.90
2018-02-06T08:50:51.191Z,39.30
2018-02-06T08:51:51.129Z,39.40
2018-02-06T08:52:51.066Z,42.30
2018-02-06T08:53:51.002Z,40.40
2018-02-06T08:54:50.941Z,38.90
2018-02-06T08:55:50.879Z,37.30
2018-02-06T08:56:50.817Z,44.60
2018-02-06T08:57:50.754Z,42.70
2018-02-06T08:58:50.693Z,37.80
2018-02-06T08:59:50.695Z,41.50
2018-02-06T09:00:50.567Z,40.10
2018-02-06T09:01:50.505Z,40.20
2018-02-06T09:02:50.443Z,40.10
2018-02-06T09:03:50.385Z,41.40
2018-02-06T09:04:50.320Z,40.00
2018-02-06T09:05:50.257Z,39.80
2018-02-06T09:06:50.197Z,42.10
2018-02-06T09:07:50.132Z,41.80
2018-02-06T09:08:50.069Z,41.30
2018-02-06T09:09:50.006Z,42.10
2018-02-06T09:10:49.943Z,41.90
2018-02-06T09:11:49.881Z,41.90
2018-02-06T09:12:49.819Z,40.20
2018-02-06T09:13:49.757Z,42.00
2018-02-06T09:14:49.695Z,39.90
2018-02-06T09:15:49.633Z,38.50
2018-02-06T09:16:49.570Z,44.90
2018-02-06T09:17:49.509Z,43.60
2018-02-06T09:18:49.448Z,44.70
2018-02-06T09:19:49.385Z,42.80
2018-02-06T09:20:49.322Z,42.90
2018-02-06T09:21:49.258Z,44.40
2018-02-06T09:22:49.197Z,41.70
2018-02-06T09:23:49.137Z,41.10
2018-02-06T09:24:49.073Z,42.20
2018-02-06T09:25:49.010Z,40.20
2018-02-06T09:26:48.948Z,43.20
2018-02-06T09:27:48.887Z,41.90
2018-02-06T09:28:48.826Z,39.50
2018-02-06T09:29:48.762Z,40.10
2018-02-06T09:30:48.704Z,39.30
2018-02-06T09:31:48.639Z,40.90
2018-02-06T09:32:48.576Z,41.00
2018-02-06T09:33:48.513Z,41.30
2018-02-06T09:34:48.452Z,40.10
2018-02-06T09:35:48.391Z,41.90
2018-02-06T09:36:48.329Z,40.90
2018-02-06T09:37:48.266Z,40.60
2018-02-06T09:38:48.202Z,41.20
2018-02-06T09:39:48.143Z,39.40
2018-02-06T09:40:48.081Z,42.60
2018-02-06T09:41:48.017Z,39.50
2018-02-06T09:42:47.957Z,40.30
2018-02-06T09:43:47.894Z,41.10
2018-02-06T09:44:47.833Z,38.50
2018-02-06T09:45:47.772Z,41.70
2018-02-06T09:46:47.709Z,41.00
2018-02-06T09:47:47.646Z,43.30
2018-02-06T09:48:47.586Z,40.80
2018-02-06T09:49:47.522Z,39.80
2018-02-06T09:50:47.463Z,43.10
2018-02-06T09:51:47.397Z,41.90
2018-02-06T09:52:47.336Z,42.90
2018-02-06T09:53:47.277Z,43.30
2018-02-06T09:54:47.212Z,44.00
2018-02-06T09:55:47.150Z,42.70
2018-02-06T09:56:47.088Z,43.70
2018-02-06T09:57:47.028Z,42.00
2018-02-06T09:58:46.965Z,41.90
2018-02-06T09:59:46.902Z,41.40
2018-02-06T10:00:46.840Z,42.00
2018-02-06T10:01:46.779Z,42.60
2018-02-06T10:02:46.717Z,44.00
2018-02-06T10:03:46.657Z,40.70
2018-02-06T10:04:46.620Z,43.10
2018-02-06T10:05:46.530Z,41.90
2018-02-06T10:06:46.470Z,43.00
2018-02-06T10:07:46.408Z,40.60
2018-02-06T10:08:46.344Z,41.80
2018-02-06T10:09:46.283Z,42.10
2018-02-06T10:10:46.220Z,41.20
2018-02-06T10:11:46.159Z,39.60
2018-02-06T10:12:46.097Z,40.90
2018-02-06T10:13:46.037Z,40.80
2018-02-06T10:14:45.975Z,41.80
2018-02-06T10:15:45.911Z,42.50
2018-02-06T10:16:45.850Z,39.20
2018-02-06T10:17:45.788Z,41.10
2018-02-06T10:18:45.726Z,41.70
2018-02-06T10:19:45.666Z,42.00
2018-02-06T10:20:45.603Z,43.70
2018-02-06T10:21:45.539Z,44.30
2018-02-06T10:22:45.479Z,44.70
2018-02-06T10:23:45.418Z,39.90
2018-02-06T10:24:45.355Z,42.10
2018-02-06T10:25:45.293Z,42.10
2018-02-06T10:26:45.233Z,46.40
2018-02-06T10:27:45.169Z,47.20
2018-02-06T10:28:45.107Z,41.70
2018-02-06T10:29:45.046Z,42.10
2018-02-06T10:30:44.982Z,39.80
2018-02-06T10:31:44.921Z,41.50
2018-02-06T10:32:44.860Z,42.00
2018-02-06T10:33:44.796Z,43.30
2018-02-06T10:34:44.736Z,41.50
2018-02-06T10:35:44.674Z,42.30
2018-02-06T10:36:44.613Z,47.70
2018-02-06T10:37:44.552Z,41.40
2018-02-06T10:38:44.490Z,42.30
2018-02-06T10:39:44.430Z,44.20
2018-02-06T10:40:44.366Z,40.20
2018-02-06T10:41:44.307Z,39.80
2018-02-06T10:42:44.245Z,44.20
2018-02-06T10:43:44.182Z,42.40
2018-02-06T10:44:44.122Z,41.30
2018-02-06T10:45:44.059Z,42.30
2018-02-06T10:46:43.997Z,41.80
2018-02-06T10:47:43.940Z,39.40
2018-02-06T10:48:43.878Z,42.10
2018-02-06T10:49:43.813Z,41.30
2018-02-06T10:50:43.757Z,40.50
2018-02-06T10:51:43.690Z,43.20
2018-02-06T10:52:43.631Z,40.10
2018-02-06T10:53:43.571Z,43.00
2018-02-06T10:54:43.510Z,44.70
2018-02-06T10:55:43.451Z,42.40
2018-02-06T10:56:43.384Z,40.30
2018-02-06T10:57:43.322Z,41.40
2018-02-06T10:58:43.355Z,44.50
2018-02-06T10:59:43.200Z,42.90
2018-02-06T11:00:43.151Z,41.70
2018-02-06T11:01:43.079Z,40.40
2018-02-06T11:02:43.016Z,43.80
2018-02-06T11:03:42.954Z,41.80
2018-02-06T11:04:42.897Z,42.10
2018-02-06T11:05:42.831Z,42.30
2018-02-06T11:06:42.769Z,40.10
2018-02-06T11:07:42.711Z,44.50
2018-02-06T11:08:42.649Z,43.70
2018-02-06T11:09:42.589Z,41.80
2018-02-06T11:10:42.522Z,42.50
2018-02-06T11:11:42.464Z,40.10
2018-02-06T11:12:42.404Z,44.40
2018-02-06T11:13:42.341Z,40.10
2018-02-06T11:14:42.280Z,43.10
2018-02-06T11:15:42.237Z,42.40
2018-02-06T11:16:42.157Z,42.40
2018-02-06T11:17:42.095Z,43.00
2018-02-06T11:18:42.033Z,41.10
2018-02-06T11:19:41.973Z,40.10
2018-02-06T11:20:41.911Z,42.70
2018-02-06T11:21:41.851Z,45.30
2018-02-06T11:22:41.788Z,41.50
2018-02-06T11:23:41.729Z,39.70
2018-02-06T11:24:41.667Z,41.80
2018-02-06T11:25:41.603Z,43.10
2018-02-06T11:26:41.543Z,42.80
2018-02-06T11:27:41.486Z,38.60
2018-02-06T11:28:41.422Z,42.40
2018-02-06T11:29:41.359Z,39.40
2018-02-06T11:30:41.298Z,39.80
2018-02-06T11:31:41.238Z,38.70
2018-02-06T11:32:41.176Z,38.40
2018-02-06T11:33:41.114Z,38.20
2018-02-06T11:34:41.056Z,40.20
2018-02-06T11:35:40.996Z,41.70
2018-02-06T11:36:40.934Z,37.60
2018-02-06T11:37:40.869Z,39.30
2018-02-06T11:38:40.809Z,37.10
2018-02-06T11:39:40.747Z,37.70
2018-02-06T11:40:40.686Z,36.00
2018-02-06T11:41:40.625Z,35.00
2018-02-06T11:42:40.565Z,35.50
2018-02-06T11:43:40.505Z,37.00
2018-02-06T11:44:40.446Z,35.00
2018-02-06T11:45:40.445Z,37.20
2018-02-06T11:46:40.320Z,39.30
2018-02-06T11:47:40.258Z,38.10
2018-02-06T11:48:40.197Z,34.60
2018-02-06T11:49:40.136Z,34.70
2018-02-06T11:50:40.076Z,40.00
2018-02-06T11:51:40.016Z,36.30
2018-02-06T11:52:39.951Z,36.90
2018-02-06T11:53:39.888Z,33.90
2018-02-06T11:54:39.832Z,39.10
2018-02-06T11:55:39.773Z,36.20
2018-02-06T11:56:39.710Z,35.90
2018-02-06T11:57:39.648Z,35.20
2018-02-06T11:58:39.586Z,35.90
2018-02-06T11:59:39.527Z,36.50
2018-02-06T12:00:39.464Z,37.10
2018-02-06T12:01:39.402Z,34.10
2018-02-06T12:02:39.342Z,35.50
2018-02-06T12:03:39.284Z,34.10
2018-02-06T12:04:39.223Z,35.00
2018-02-06T12:05:39.159Z,34.20
2018-02-06T12:06:39.098Z,35.20
2018-02-06T12:07:39.038Z,34.40
2018-02-06T12:08:38.977Z,34.50
2018-02-06T12:09:38.915Z,37.20
2018-02-06T12:10:38.854Z,35.80
2018-02-06T12:11:38.794Z,33.90
2018-02-06T12:12:38.732Z,35.20
2018-02-06T12:13:38.678Z,34.60
2018-02-06T12:14:38.611Z,34.00
2018-02-06T12:15:38.552Z,35.20
2018-02-06T12:16:38.490Z,33.90
2018-02-06T12:17:38.429Z,34.70
2018-02-06T12:18:38.368Z,33.80
2018-02-06T12:19:38.308Z,35.10
2018-02-06T12:20:38.246Z,37.80
2018-02-06T12:21:38.187Z,32.40
2018-02-06T12:22:38.124Z,35.10
2018-02-06T12:23:38.062Z,33.20
2018-02-06T12:24:38.003Z,33.60
2018-02-06T12:25:37.938Z,33.00
2018-02-06T12:26:37.879Z,37.00
2018-02-06T12:27:37.819Z,33.20
2018-02-06T12:28:37.756Z,33.90
2018-02-06T12:29:37.692Z,35.20
2018-02-06T12:30:37.633Z,34.10
2018-02-06T12:31:37.581Z,33.50
2018-02-06T12:32:37.509Z,33.50
2018-02-06T12:33:37.445Z,35.40
2018-02-06T12:34:37.387Z,34.50
2018-02-06T12:35:37.324Z,33.90
2018-02-06T12:36:37.263Z,38.20
2018-02-06T12:37:37.202Z,33.40
2018-02-06T12:38:37.140Z,33.70
2018-02-06T12:39:37.077Z,35.60
2018-02-06T12:40:37.024Z,33.00
2018-02-06T12:41:36.974Z,36.90
2018-02-06T12:42:36.893Z,32.30
2018-02-06T12:43:36.830Z,30.50
2018-02-06T12:44:36.770Z,31.40
2018-02-06T12:45:36.709Z,34.30
2018-02-06T12:46:36.647Z,35.40
2018-02-06T12:47:36.590Z,31.80
2018-02-06T12:48:36.525Z,34.70
2018-02-06T12:49:36.462Z,34.40
2018-02-06T12:50:36.401Z,31.70
2018-02-06T12:51:36.339Z,35.90
2018-02-06T12:52:36.280Z,33.00
2018-02-06T12:53:36.230Z,33.60
2018-02-06T12:54:36.152Z,33.70
2018-02-06T12:55:36.093Z,33.40
2018-02-06T12:56:36.037Z,32.00
2018-02-06T12:57:35.970Z,34.90
2018-02-06T12:58:35.910Z,31.00
2018-02-06T12:59:35.850Z,33.40
2018-02-06T13:00:35.787Z,33.90
2018-02-06T13:01:35.725Z,33.30
2018-02-06T13:02:35.664Z,31.30
2018-02-06T13:03:35.616Z,34.50
2018-02-06T13:04:35.541Z,33.30
2018-02-06T13:05:35.491Z,36.10
2018-02-06T13:06:35.420Z,33.00
2018-02-06T13:07:35.360Z,31.70
2018-02-06T13:08:35.298Z,30.20
2018-02-06T13:09:35.241Z,32.50
2018-02-06T13:10:35.175Z,31.10
2018-02-06T13:11:35.114Z,31.30
2018-02-06T13:12:35.053Z,31.60
2018-02-06T13:13:35.024Z,33.80
2018-02-06T13:14:34.931Z,32.70
2018-02-06T13:15:34.874Z,31.90
2018-02-06T13:16:34.809Z,32.10
2018-02-06T13:17:34.748Z,33.30
2018-02-06T13:18:34.687Z,29.10
2018-02-06T13:19:34.626Z,32.80
2018-02-06T13:20:34.570Z,30.60
2018-02-06T13:21:34.503Z,32.70
2018-02-06T13:22:34.442Z,30.40
2018-02-06T13:23:34.383Z,30.50
2018-02-06T13:24:34.322Z,29.60
2018-02-06T13:25:34.269Z,29.70
2018-02-06T13:26:34.197Z,32.70
2018-02-06T13:27:34.140Z,31.10
2018-02-06T13:28:34.077Z,30.10
2018-02-06T13:29:34.017Z,31.20
2018-02-06T13:30:33.962Z,29.70
2018-02-06T13:31:33.894Z,29.90
2018-02-06T13:32:33.833Z,32.90
2018-02-06T13:33:33.772Z,32.00
2018-02-06T13:34:33.711Z,33.80
2018-02-06T13:35:33.646Z,31.90
2018-02-06T13:36:33.587Z,32.60
2018-02-06T13:37:33.526Z,34.10
2018-02-06T13:38:33.464Z,32.40
2018-02-06T13:39:33.406Z,30.60
2018-02-06T13:40:33.347Z,30.90
2018-02-06T13:41:33.283Z,32.00
2018-02-06T13:42:33.221Z,30.40
2018-02-06T13:43:33.162Z,35.50
2018-02-06T13:44:33.101Z,33.50
2018-02-06T13:45:33.041Z,32.90
2018-02-06T13:46:32.978Z,31.90
2018-02-06T13:47:32.917Z,31.20
2018-02-06T13:48:32.861Z,31.50
2018-02-06T13:49:32.797Z,32.00
2018-02-06T13:50:32.734Z,30.50
2018-02-06T13:51:32.679Z,33.70
2018-02-06T13:52:32.613Z,33.20
2018-02-06T13:53:32.557Z,34.10
2018-02-06T13:54:32.501Z,33.40
2018-02-06T13:55:32.431Z,34.80
2018-02-06T13:56:32.372Z,33.30
2018-02-06T13:57:32.307Z,33.90
2018-02-06T13:58:32.247Z,31.50
2018-02-06T13:59:32.183Z,32.90
2018-02-06T14:00:32.123Z,36.80
2018-02-06T14:01:32.062Z,34.70
2018-02-06T14:02:32.000Z,36.80
2018-02-06T14:03:31.940Z,34.90
2018-02-06T14:04:31.878Z,35.00
2018-02-06T14:05:31.819Z,37.80
2018-02-06T14:06:31.754Z,38.50
2018-02-06T14:07:31.697Z,38.30
2018-02-06T14:08:31.633Z,35.60
2018-02-06T14:09:31.571Z,36.10
2018-02-06T14:10:31.515Z,36.50
2018-02-06T14:11:31.451Z,36.10
2018-02-06T14:12:31.389Z,35.70
2018-02-06T14:13:31.331Z,35.90
2018-02-06T14:14:31.267Z,37.60
2018-02-06T14:15:31.210Z,36.20
2018-02-06T14:16:31.174Z,36.50
2018-02-06T14:17:31.088Z,38.90
2018-02-06T14:18:31.022Z,37.10
2018-02-06T14:19:30.961Z,38.10
2018-02-06T14:20:30.904Z,36.70
2018-02-06T14:21:30.838Z,37.20
2018-02-06T14:22:30.776Z,36.90
2018-02-06T14:23:30.716Z,40.10
2018-02-06T14:24:30.657Z,38.60
2018-02-06T14:25:30.595Z,36.90
2018-02-06T14:26:30.537Z,38.50
2018-02-06T14:27:30.477Z,38.70
2018-02-06T14:28:30.411Z,37.90
2018-02-06T14:29:30.349Z,36.60
2018-02-06T14:30:30.290Z,38.40
2018-02-06T14:31:30.229Z,39.60
2018-02-06T14:32:30.168Z,40.50
2018-02-06T14:33:30.105Z,37.60
2018-02-06T14:34:30.045Z,42.20
2018-02-06T14:35:29.983Z,37.10
2018-02-06T14:36:29.923Z,38.50
2018-02-06T14:37:29.862Z,36.20
2018-02-06T14:38:29.804Z,45.60
2018-02-06T14:39:29.743Z,39.20
2018-02-06T14:40:29.679Z,38.90
2018-02-06T14:41:29.618Z,37.50
2018-02-06T14:42:29.557Z,37.80
2018-02-06T14:43:29.502Z,38.40
2018-02-06T14:44:29.436Z,41.00
2018-02-06T14:45:29.373Z,38.70
2018-02-06T14:46:29.314Z,40.90
2018-02-06T14:47:29.251Z,40.10
2018-02-06T14:48:29.193Z,37.80